Time;durP1;ratioP1;P1;durP2;ratioP2;P2;SDS_P1;SDS_P2;PMS_P1;PMS_P2;Temp;Humidity;BMP_temperature;BMP_pressure;BME280_temperature;BME280_humidity;BME280_pressure;Samples;Min_cycle;Max_cycle;Signal;HPM_P1;HPM_P2
2023/09/13 00:01:54;;;;;;;42.97;40.45;;;;;;;18.97;100.00;101156.53;4985456;28;20058;-75
2023/09/13 00:04:21;;;;;;;31.30;29.80;;;;;;;18.88;100.00;101149.97;4989564;28;20463;-75
2023/09/13 00:06:49;;;;;;;32.25;30.65;;;;;;;18.86;100.00;101161.00;4981454;28;20049;-80
2023/09/13 00:09:26;;;;;;;33.00;31.40;;;;;;;18.82;100.00;101159.88;4991217;28;20098;-80
2023/09/13 00:11:54;;;;;;;36.05;34.45;;;;;;;18.84;100.00;101171.19;4988929;28;20051;-75
2023/09/13 00:14:21;;;;;;;42.05;40.15;;;;;;;18.85;100.00;101167.47;4988479;28;20082;-74
2023/09/13 00:16:50;;;;;;;39.75;37.85;;;;;;;18.79;100.00;101168.47;4982095;28;20421;-74
2023/09/13 00:19:17;;;;;;;45.25;43.15;;;;;;;18.86;100.00;101169.06;4987996;28;20057;-75
2023/09/13 00:21:43;;;;;;;34.72;32.92;;;;;;;18.78;100.00;101158.72;4977336;28;20414;-75
2023/09/13 00:24:11;;;;;;;35.65;33.85;;;;;;;18.75;100.00;101160.03;4982793;28;20135;-75
2023/09/13 00:26:39;;;;;;;37.50;35.60;;;;;;;18.81;100.00;101162.81;4983124;28;20048;-80
2023/09/13 00:29:08;;;;;;;40.22;38.33;;;;;;;18.82;100.00;101167.97;4993306;28;20050;-80
2023/09/13 00:31:35;;;;;;;39.63;37.83;;;;;;;18.68;100.00;101156.69;4989811;28;20051;-80
2023/09/13 00:34:02;;;;;;;37.75;35.95;;;;;;;18.83;100.00;101168.75;4992502;28;20047;-80
2023/09/13 00:36:29;;;;;;;44.40;42.10;;;;;;;18.84;100.00;101160.44;4990984;28;20050;-80
2023/09/13 00:38:55;;;;;;;39.53;37.63;;;;;;;18.71;100.00;101161.59;4990785;28;20065;-80
2023/09/13 00:41:22;;;;;;;37.92;36.03;;;;;;;18.81;100.00;101168.19;4987776;28;20046;-80
2023/09/13 00:44:23;;;;;;;43.53;41.33;;;;;;;18.54;100.00;101169.69;4994546;28;20046;-80
2023/09/13 00:46:51;;;;;;;46.20;43.70;;;;;;;18.73;100.00;101170.25;4990291;28;20518;-75
2023/09/13 00:49:27;;;;;;;39.72;37.63;;;;;;;18.74;100.00;101161.13;4992089;28;20054;-75
2023/09/13 00:51:58;;;;;;;44.50;42.40;;;;;;;18.79;100.00;101162.22;4989081;28;20549;-75
2023/09/13 00:54:26;;;;;;;52.30;49.80;;;;;;;18.73;100.00;101164.06;4991321;28;20514;-74
2023/09/13 00:57:02;;;;;;;38.42;36.53;;;;;;;18.65;100.00;101164.47;4990832;28;20542;-75
2023/09/13 01:00:10;;;;;;;42.67;40.67;;;;;;;18.65;100.00;101165.28;4979549;28;20047;-74
2023/09/13 01:02:46;;;;;;;43.67;39.67;;;;;;;18.67;100.00;101163.16;4992056;28;20437;-75
2023/09/13 01:05:22;;;;;;;40.30;38.50;;;;;;;18.62;100.00;101170.34;4992281;28;20046;-74
2023/09/13 01:07:49;;;;;;;42.15;40.22;;;;;;;18.45;100.00;101171.16;4989269;28;20042;-75
2023/09/13 01:10:43;;;;;;;46.45;44.25;;;;;;;18.56;100.00;101164.06;4981795;28;20047;-75
2023/09/13 01:13:10;;;;;;;35.10;33.28;;;;;;;18.59;100.00;101162.75;4990845;28;20054;-75
2023/09/13 01:15:56;;;;;;;42.35;40.17;;;;;;;18.28;100.00;101175.78;4981992;28;20051;-75
2023/09/13 01:18:29;;;;;;;43.20;41.00;;;;;;;18.41;100.00;101161.97;4977392;28;20076;-75
2023/09/13 01:21:14;;;;;;;43.60;41.47;;;;;;;18.39;100.00;101171.34;4991194;28;20578;-75
2023/09/13 01:24:23;;;;;;;42.97;40.88;;;;;;;18.27;100.00;101169.56;4982445;28;20137;-74
2023/09/13 01:27:40;;;;;;;37.22;35.33;;;;;;;17.76;100.00;101170.59;4952945;28;20050;-75
2023/09/13 01:30:10;;;;;;;34.05;32.45;;;;;;;17.88;100.00;101170.56;4982803;28;20109;-80
2023/09/13 01:32:37;;;;;;;44.25;42.03;;;;;;;17.97;100.00;101171.78;4990882;28;20547;-79
2023/09/13 01:35:34;;;;;;;44.13;42.17;;;;;;;18.02;100.00;101172.69;4989368;28;20539;-79
2023/09/13 01:38:01;;;;;;;40.70;38.90;;;;;;;17.89;100.00;101172.19;4991833;28;20058;-81
2023/09/13 01:40:33;;;;;;;39.42;37.63;;;;;;;17.61;100.00;101173.84;4986203;28;20046;-80
2023/09/13 01:43:08;;;;;;;42.30;40.20;;;;;;;17.38;100.00;101169.38;4991744;28;20051;-80
2023/09/13 01:45:42;;;;;;;33.00;31.30;;;;;;;17.44;100.00;101165.75;4982845;28;20530;-80
2023/09/13 01:48:11;;;;;;;37.30;35.40;;;;;;;17.21;100.00;101176.56;4991084;28;20058;-80
2023/09/13 01:50:39;;;;;;;39.45;37.65;;;;;;;16.88;100.00;101170.00;4989772;28;20052;-80
2023/09/13 01:53:11;;;;;;;39.72;37.72;;;;;;;16.51;100.00;101182.84;4990418;28;20050;-80
2023/09/13 01:55:38;;;;;;;35.65;33.83;;;;;;;16.43;100.00;101176.81;4990066;28;20046;-80
2023/09/13 01:58:05;;;;;;;37.22;35.40;;;;;;;16.62;100.00;101180.16;4986800;28;20129;-80
2023/09/13 02:00:33;;;;;;;32.65;31.05;;;;;;;16.80;100.00;101181.13;4983840;28;20575;-80
2023/09/13 02:03:01;;;;;;;30.05;28.55;;;;;;;16.62;100.00;101184.72;4987803;28;20434;-80
2023/09/13 02:05:41;;;;;;;27.75;26.05;;;;;;;16.52;100.00;101176.44;4987414;28;20050;-80
2023/09/13 02:08:11;;;;;;;36.13;34.33;;;;;;;16.41;100.00;101181.56;4984375;28;20097;-80
2023/09/13 02:10:47;;;;;;;35.72;34.13;;;;;;;16.35;100.00;101170.97;4989066;28;20042;-80
2023/09/13 02:13:15;;;;;;;32.28;30.88;;;;;;;16.64;100.00;101177.22;4972916;28;20046;-80
2023/09/13 02:15:42;;;;;;;48.05;45.95;;;;;;;16.27;100.00;101175.59;4981955;28;20050;-80
2023/09/13 02:18:11;;;;;;;38.10;36.30;;;;;;;15.83;100.00;101179.66;4982304;28;20081;-79
2023/09/13 02:20:37;;;;;;;33.92;32.35;;;;;;;16.11;100.00;101183.53;4982296;28;20050;-79
2023/09/13 02:23:04;;;;;;;35.03;33.38;;;;;;;16.00;100.00;101182.47;4988714;28;20061;-80
2023/09/13 02:25:36;;;;;;;33.65;32.15;;;;;;;16.31;100.00;101173.31;4986235;28;20488;-81
2023/09/13 02:28:03;;;;;;;27.83;26.42;;;;;;;16.45;100.00;101185.41;4973443;28;20050;-81
2023/09/13 02:30:31;;;;;;;32.20;30.70;;;;;;;16.56;100.00;101180.28;4989916;28;20050;-81
2023/09/13 02:32:57;;;;;;;33.65;32.15;;;;;;;16.42;100.00;101185.88;4989901;28;20050;-81
2023/09/13 02:35:26;;;;;;;52.33;49.72;;;;;;;16.43;100.00;101184.00;4989829;28;20422;-81
2023/09/13 02:37:58;;;;;;;57.45;54.63;;;;;;;16.02;100.00;101177.69;4988458;28;20070;-81
2023/09/13 02:40:26;;;;;;;51.50;48.90;;;;;;;16.03;100.00;101180.13;4990091;28;20057;-81
2023/09/13 02:42:53;;;;;;;34.10;32.60;;;;;;;16.13;100.00;101179.59;4987877;28;20050;-81
2023/09/13 02:45:19;;;;;;;33.72;32.22;;;;;;;16.09;100.00;101188.31;4982489;28;20046;-81
2023/09/13 02:47:52;;;;;;;39.33;37.42;;;;;;;15.44;100.00;101187.16;4990454;28;20050;-81
2023/09/13 02:50:19;;;;;;;40.33;38.53;;;;;;;15.87;100.00;101183.50;4989874;28;20046;-81
2023/09/13 02:52:48;;;;;;;33.90;31.90;;;;;;;15.73;100.00;101184.72;4987296;28;20050;-81
2023/09/13 02:55:15;;;;;;;35.90;34.30;;;;;;;15.75;100.00;101183.47;4989152;28;20050;-81
2023/09/13 02:57:44;;;;;;;31.38;29.98;;;;;;;15.71;100.00;101187.66;4986750;28;20143;-81
2023/09/13 03:00:13;;;;;;;26.70;25.50;;;;;;;15.81;100.00;101187.09;4988538;28;20046;-81
2023/09/13 03:02:39;;;;;;;37.55;35.85;;;;;;;15.81;100.00;101197.78;4990075;28;20498;-81
2023/09/13 03:05:09;;;;;;;33.13;31.40;;;;;;;15.84;100.00;101188.50;4988656;28;20431;-81
2023/09/13 03:07:36;;;;;;;30.20;28.80;;;;;;;15.58;100.00;101201.16;4990244;28;20400;-80
2023/09/13 03:10:05;;;;;;;31.65;30.25;;;;;;;15.05;100.00;101196.50;4987288;28;20442;-81
2023/09/13 03:12:58;;;;;;;30.80;29.50;;;;;;;15.62;100.00;101201.56;4987150;28;20051;-75
2023/09/13 03:15:25;;;;;;;45.30;43.10;;;;;;;15.63;100.00;101197.81;4988865;28;20046;-81
2023/09/13 03:17:52;;;;;;;47.05;44.65;;;;;;;15.21;100.00;101211.13;4989314;28;20524;-81
2023/09/13 03:20:19;;;;;;;30.48;28.88;;;;;;;15.30;100.00;101215.13;4984140;28;20496;-75
2023/09/13 03:22:47;;;;;;;27.83;26.33;;;;;;;15.55;100.00;101215.00;4985115;28;20043;-75
2023/09/13 03:25:16;;;;;;;26.48;25.17;;;;;;;15.54;100.00;101218.75;4980245;28;20051;-81
2023/09/13 03:27:43;;;;;;;28.23;26.73;;;;;;;15.47;100.00;101212.66;4983204;28;20047;-81
2023/09/13 03:30:10;;;;;;;26.48;24.98;;;;;;;15.51;100.00;101213.84;4981034;28;20579;-81
2023/09/13 03:32:37;;;;;;;25.20;23.80;;;;;;;15.35;100.00;101218.78;4989822;28;20407;-81
2023/09/13 03:35:05;;;;;;;29.08;27.58;;;;;;;15.32;100.00;101232.59;4980216;28;20108;-81
2023/09/13 03:37:33;;;;;;;28.55;27.05;;;;;;;15.35;100.00;101229.47;4977447;28;20066;-81
2023/09/13 03:40:00;;;;;;;28.73;27.33;;;;;;;15.27;100.00;101227.09;4989787;28;20424;-81
2023/09/13 03:42:30;;;;;;;26.33;24.92;;;;;;;15.09;100.00;101225.25;4977907;28;20046;-81
2023/09/13 03:44:57;;;;;;;61.90;58.90;;;;;;;15.22;100.00;101221.63;4986606;28;20061;-75
2023/09/13 03:47:24;;;;;;;23.52;22.23;;;;;;;14.86;100.00;101215.25;4983645;28;20125;-75
2023/09/13 03:49:51;;;;;;;21.85;20.65;;;;;;;14.61;100.00;101225.97;4988240;28;20042;-75
2023/09/13 03:52:18;;;;;;;22.35;21.05;;;;;;;14.96;100.00;101228.09;4990022;28;20053;-74
2023/09/13 03:54:45;;;;;;;21.50;20.20;;;;;;;14.91;100.00;101219.09;4991695;28;20543;-80
2023/09/13 03:57:12;;;;;;;20.67;19.55;;;;;;;14.73;100.00;101226.06;4985613;28;20054;-75
2023/09/13 03:59:49;;;;;;;22.58;20.63;;;;;;;13.96;100.00;101225.44;4987119;28;20050;-75
2023/09/13 04:02:29;;;;;;;22.10;20.80;;;;;;;14.66;100.00;101230.66;4992186;28;20053;-81
2023/09/13 04:04:56;;;;;;;21.30;20.10;;;;;;;15.05;100.00;101240.13;4991874;28;20064;-80
2023/09/13 04:07:36;;;;;;;22.38;21.05;;;;;;;15.23;100.00;101233.97;4985098;28;20464;-80
2023/09/13 04:10:06;;;;;;;20.52;19.42;;;;;;;15.12;100.00;101235.50;4984406;28;20056;-81
2023/09/13 04:12:33;;;;;;;20.30;19.10;;;;;;;15.16;100.00;101241.25;4989556;28;20136;-75
2023/09/13 04:15:01;;;;;;;20.60;19.38;;;;;;;14.97;100.00;101237.75;4982138;28;20119;-76
2023/09/13 04:17:28;;;;;;;22.65;21.45;;;;;;;15.04;100.00;101241.19;4982122;28;20046;-75
2023/09/13 04:19:55;;;;;;;22.15;20.90;;;;;;;14.95;100.00;101242.50;4982008;28;20050;-75
2023/09/13 04:22:22;;;;;;;21.80;20.60;;;;;;;14.75;100.00;101241.88;4992463;28;20038;-75
2023/09/13 04:24:48;;;;;;;20.27;19.17;;;;;;;15.17;100.00;101250.91;4990809;28;20046;-75
2023/09/13 04:27:21;;;;;;;22.70;21.30;;;;;;;15.34;100.00;101246.59;4989369;28;20426;-75
2023/09/13 04:29:48;;;;;;;23.15;21.95;;;;;;;15.86;100.00;101239.97;4990447;28;20564;-75
2023/09/13 04:32:16;;;;;;;23.05;21.75;;;;;;;15.71;100.00;101240.38;4991131;28;20076;-75
2023/09/13 04:34:46;;;;;;;20.00;18.80;;;;;;;15.58;100.00;101244.00;4997476;28;20049;-75
2023/09/13 04:37:15;;;;;;;24.33;22.77;;;;;;;15.98;100.00;101243.50;4994668;28;20049;-78
2023/09/13 04:39:42;;;;;;;22.40;21.00;;;;;;;21.63;100.00;101237.53;4994898;28;20134;-76
2023/09/13 04:42:09;;;;;;;22.48;21.17;;;;;;;16.93;100.00;101250.59;4993042;28;20045;-76
2023/09/13 04:44:36;;;;;;;21.35;20.00;;;;;;;16.15;100.00;101246.31;4997875;28;20054;-76
2023/09/13 04:47:02;;;;;;;19.77;18.58;;;;;;;16.16;100.00;101242.63;4991630;28;20042;-76
2023/09/13 04:49:31;;;;;;;21.80;20.65;;;;;;;16.16;100.00;101248.78;4984248;28;20093;-76
2023/09/13 04:51:59;;;;;;;22.60;21.30;;;;;;;16.06;100.00;101245.84;4985223;28;20054;-76
2023/09/13 04:54:26;;;;;;;22.15;20.85;;;;;;;16.10;100.00;101239.00;4978185;28;20505;-76
2023/09/13 04:56:53;;;;;;;23.30;21.90;;;;;;;16.16;100.00;101246.13;4990435;28;20050;-77
2023/09/13 04:59:25;;;;;;;23.23;21.83;;;;;;;16.24;100.00;101240.41;4983461;28;20057;-76
2023/09/13 05:01:52;;;;;;;22.58;21.08;;;;;;;16.32;100.00;101239.25;4981365;28;20097;-76
2023/09/13 05:04:19;;;;;;;23.13;21.67;;;;;;;18.95;100.00;101237.56;4984845;28;20058;-77
2023/09/13 05:06:47;;;;;;;23.60;22.20;;;;;;;17.60;100.00;101234.78;4987943;28;20054;-74
2023/09/13 05:09:14;;;;;;;24.27;22.77;;;;;;;17.52;100.00;101231.66;4984767;28;20059;-75
2023/09/13 05:11:41;;;;;;;26.00;24.30;;;;;;;17.16;100.00;101230.97;4981665;28;20409;-75
2023/09/13 05:14:12;;;;;;;24.58;22.98;;;;;;;17.30;100.00;101239.56;4981691;28;20513;-75
2023/09/13 05:16:39;;;;;;;23.77;22.27;;;;;;;17.36;100.00;101241.28;4986128;28;20061;-75
2023/09/13 05:19:06;;;;;;;22.58;21.17;;;;;;;17.46;100.00;101238.81;4985161;28;20050;-74
2023/09/13 05:21:33;;;;;;;22.77;21.27;;;;;;;17.38;100.00;101239.19;4974741;28;20432;-75
2023/09/13 05:24:02;;;;;;;23.33;22.00;;;;;;;17.48;100.00;101242.06;4979580;28;20051;-75
2023/09/13 05:26:29;;;;;;;23.23;21.73;;;;;;;17.82;100.00;101239.50;4988316;28;20046;-81
2023/09/13 05:28:56;;;;;;;24.52;23.13;;;;;;;17.97;100.00;101249.72;4989066;28;20058;-81
2023/09/13 05:31:23;;;;;;;24.35;22.95;;;;;;;17.99;100.00;101234.16;4985955;28;20077;-81
2023/09/13 05:33:50;;;;;;;22.88;21.58;;;;;;;18.15;100.00;101230.66;4985569;28;20416;-81
2023/09/13 05:36:17;;;;;;;21.50;20.30;;;;;;;18.34;100.00;101233.13;4981239;28;20057;-81
2023/09/13 05:38:44;;;;;;;20.80;19.50;;;;;;;18.53;100.00;101239.88;4980109;28;20055;-80
2023/09/13 05:41:13;;;;;;;22.70;21.30;;;;;;;18.68;100.00;101236.59;4979651;28;20046;-80
2023/09/13 05:43:42;;;;;;;21.50;20.10;;;;;;;18.75;100.00;101239.94;4982810;28;20053;-80
2023/09/13 05:46:09;;;;;;;22.60;21.20;;;;;;;18.89;100.00;101237.75;4979880;28;20420;-81
2023/09/13 05:48:37;;;;;;;22.88;21.58;;;;;;;19.19;100.00;101238.13;4987140;28;20502;-75
2023/09/13 05:51:07;;;;;;;21.75;20.35;;;;;;;19.40;100.00;101241.06;4986730;28;20054;-75
2023/09/13 05:53:34;;;;;;;23.17;21.77;;;;;;;19.44;100.00;101236.78;4988571;28;20050;-75
2023/09/13 05:56:01;;;;;;;24.50;23.10;;;;;;;19.43;100.00;101237.88;4987690;28;20461;-75
2023/09/13 05:58:29;;;;;;;25.83;24.45;;;;;;;19.71;100.00;101241.44;4985654;28;20432;-81
2023/09/13 06:00:57;;;;;;;24.77;23.38;;;;;;;19.90;100.00;101232.72;4986353;28;20056;-75
2023/09/13 06:03:24;;;;;;;27.15;25.75;;;;;;;19.87;100.00;101222.44;4987873;28;20527;-81
2023/09/13 06:06:20;;;;;;;26.10;24.65;;;;;;;19.87;100.00;101235.91;4989792;28;20058;-81
2023/09/13 06:08:47;;;;;;;24.60;23.20;;;;;;;20.30;100.00;101234.16;4980964;28;20046;-81
2023/09/13 06:11:15;;;;;;;23.40;22.00;;;;;;;20.46;100.00;101235.06;4978446;28;20397;-81
2023/09/13 06:13:43;;;;;;;23.30;21.90;;;;;;;20.35;100.00;101230.66;4985786;28;20042;-81
2023/09/13 06:16:10;;;;;;;24.45;22.95;;;;;;;20.63;100.00;101234.09;4978957;28;20050;-81
2023/09/13 06:18:37;;;;;;;26.55;25.05;;;;;;;20.81;100.00;101230.97;4982604;28;20121;-81
2023/09/13 06:21:04;;;;;;;34.45;32.47;;;;;;;20.84;100.00;101240.44;4981299;28;20054;-82
2023/09/13 06:23:36;;;;;;;23.67;22.27;;;;;;;21.16;100.00;101234.94;4982154;28;20046;-81
2023/09/13 06:26:04;;;;;;;22.23;20.73;;;;;;;21.27;100.00;101240.13;4979876;28;20053;-76
2023/09/13 06:28:31;;;;;;;23.90;22.08;;;;;;;21.25;100.00;101242.25;4980789;28;20141;-75
2023/09/13 06:31:00;;;;;;;24.25;22.85;;;;;;;21.53;100.00;101234.00;4988986;28;20522;-81
2023/09/13 06:33:28;;;;;;;24.73;23.33;;;;;;;21.49;100.00;101248.03;4988504;28;20046;-82
2023/09/13 06:35:56;;;;;;;25.05;23.63;;;;;;;21.81;100.00;101241.59;4980481;28;20061;-76
2023/09/13 06:38:23;;;;;;;23.50;22.20;;;;;;;21.86;100.00;101249.75;4980139;28;20500;-75
2023/09/13 06:40:51;;;;;;;22.65;21.35;;;;;;;22.11;100.00;101248.94;4982385;28;20081;-75
2023/09/13 06:43:18;;;;;;;22.35;21.05;;;;;;;22.11;100.00;101248.94;4982126;28;20126;-76
2023/09/13 06:45:46;;;;;;;25.63;24.33;;;;;;;22.60;100.00;101239.47;4982791;28;20051;-76
2023/09/13 06:48:15;;;;;;;26.25;24.95;;;;;;;22.78;100.00;101251.59;4987652;28;20539;-76
2023/09/13 06:50:42;;;;;;;24.85;23.55;;;;;;;22.83;100.00;101251.59;4987044;28;20054;-82
2023/09/13 06:53:09;;;;;;;25.48;24.08;;;;;;;23.12;100.00;101246.41;4978258;28;20043;-75
2023/09/13 06:55:36;;;;;;;25.13;23.63;;;;;;;23.29;100.00;101248.75;4980513;28;20045;-75
2023/09/13 06:58:06;;;;;;;24.83;23.33;;;;;;;23.32;100.00;101249.00;4982252;28;20077;-76
2023/09/13 07:00:33;;;;;;;24.38;22.98;;;;;;;23.54;100.00;101242.38;4982346;28;20201;-76
2023/09/13 07:03:00;;;;;;;20.92;19.42;;;;;;;23.48;100.00;101246.22;4984518;28;20138;-82
2023/09/13 07:05:28;;;;;;;19.20;17.80;;;;;;;24.06;100.00;101242.91;4986254;28;20046;-82
2023/09/13 07:07:55;;;;;;;20.90;19.40;;;;;;;24.15;100.00;101236.56;4983157;28;20062;-82
2023/09/13 07:10:22;;;;;;;21.08;19.58;;;;;;;24.40;100.00;101235.53;4982053;28;20058;-82
2023/09/13 07:12:49;;;;;;;24.38;22.77;;;;;;;24.60;100.00;101229.13;4976125;28;20046;-82
2023/09/13 07:15:18;;;;;;;22.42;21.02;;;;;;;25.08;100.00;101226.41;4976623;28;20058;-81
2023/09/13 07:17:45;;;;;;;23.80;22.30;;;;;;;25.07;100.00;101227.47;4979068;28;20050;-82
2023/09/13 07:20:12;;;;;;;26.50;24.90;;;;;;;25.13;100.00;101229.06;4972636;28;20061;-82
2023/09/13 07:22:41;;;;;;;24.80;23.30;;;;;;;25.44;100.00;101225.13;4974477;28;20456;-76
2023/09/13 07:25:08;;;;;;;24.75;23.23;;;;;;;25.41;100.00;101220.28;4983973;28;20054;-76
2023/09/13 07:27:35;;;;;;;25.73;24.15;;;;;;;25.50;100.00;101229.38;4980429;28;20055;-75
2023/09/13 07:30:08;;;;;;;24.73;23.23;;;;;;;25.78;100.00;101222.16;4986475;28;20051;-75
2023/09/13 07:32:38;;;;;;;23.00;21.50;;;;;;;26.13;100.00;101223.53;4987105;28;20072;-75
2023/09/13 07:35:05;;;;;;;24.27;22.77;;;;;;;26.37;100.00;101215.22;4981696;28;20050;-76
2023/09/13 07:37:36;;;;;;;26.95;25.40;;;;;;;26.40;100.00;101219.25;4982858;28;20050;-76
2023/09/13 07:40:08;;;;;;;27.70;26.10;;;;;;;26.30;100.00;101216.72;4985699;28;20073;-76
2023/09/13 07:42:35;;;;;;;34.60;32.83;;;;;;;26.78;100.00;101211.75;4980007;28;20113;-75
2023/09/13 07:45:02;;;;;;;35.97;33.88;;;;;;;26.92;100.00;101201.63;4983197;28;20133;-75
2023/09/13 07:47:29;;;;;;;38.78;36.88;;;;;;;27.23;100.00;101205.66;4982003;28;20054;-75
2023/09/13 07:49:59;;;;;;;41.92;39.33;;;;;;;27.51;100.00;101206.41;4983534;28;20077;-76
2023/09/13 07:52:28;;;;;;;34.08;32.08;;;;;;;27.57;100.00;101214.16;4985597;28;20078;-76
2023/09/13 07:54:57;;;;;;;37.03;34.05;;;;;;;27.31;100.00;101210.41;4987477;28;20093;-82
2023/09/13 07:57:28;;;;;;;45.25;42.92;;;;;;;27.69;100.00;101213.63;4979723;28;20054;-82
2023/09/13 07:59:56;;;;;;;38.03;36.13;;;;;;;27.42;100.00;101209.06;4981501;28;20054;-75
2023/09/13 08:02:22;;;;;;;33.97;32.17;;;;;;;28.13;100.00;101206.53;4990685;28;20497;-76
2023/09/13 08:04:50;;;;;;;34.85;33.05;;;;;;;28.11;100.00;101205.22;4983794;28;20050;-76
2023/09/13 08:07:17;;;;;;;36.20;34.30;;;;;;;28.72;100.00;101211.84;4984400;28;20043;-76
2023/09/13 08:09:44;;;;;;;33.63;31.73;;;;;;;28.97;100.00;101211.09;4984135;28;20100;-76
2023/09/13 08:12:11;;;;;;;32.20;30.30;;;;;;;29.00;100.00;101204.19;4987891;28;20038;-76
2023/09/13 08:14:41;;;;;;;36.53;34.33;;;;;;;29.32;100.00;101202.16;4974452;28;20500;-76
2023/09/13 08:17:08;;;;;;;35.17;33.08;;;;;;;29.11;98.12;101197.31;4983579;28;20054;-76
2023/09/13 08:19:35;;;;;;;35.15;32.95;;;;;;;29.50;94.62;101197.47;4975660;28;20096;-76
2023/09/13 08:22:04;;;;;;;22.70;21.10;;;;;;;29.67;97.14;101198.31;4972631;28;20046;-76
2023/09/13 08:24:35;;;;;;;39.20;37.00;;;;;;;29.59;94.75;101199.13;4976876;28;20616;-76
2023/09/13 08:27:07;;;;;;;39.60;37.38;;;;;;;29.27;100.00;101192.19;4985491;28;20504;-76
2023/09/13 08:29:35;;;;;;;44.95;42.42;;;;;;;29.58;95.40;101188.47;4979277;28;20050;-82
2023/09/13 08:32:05;;;;;;;52.05;49.15;;;;;;;30.02;89.54;101192.00;4983441;28;20057;-76
2023/09/13 08:34:33;;;;;;;50.17;47.38;;;;;;;29.59;95.14;101188.16;4987338;28;20136;-82
2023/09/13 08:37:00;;;;;;;46.95;44.35;;;;;;;30.49;86.83;101183.78;4982531;28;20132;-82
2023/09/13 08:39:27;;;;;;;50.55;47.65;;;;;;;30.19;85.29;101180.16;4983401;28;20053;-82
2023/09/13 08:41:55;;;;;;;38.83;36.42;;;;;;;30.92;76.97;101177.28;4984124;28;20073;-83
2023/09/13 08:44:23;;;;;;;31.33;29.40;;;;;;;30.58;82.67;101179.06;4984806;28;20046;-83
2023/09/13 08:46:55;;;;;;;31.55;29.55;;;;;;;30.60;82.60;101176.81;4981656;28;20492;-83
2023/09/13 08:49:24;;;;;;;44.20;41.70;;;;;;;30.60;81.09;101173.28;4984444;28;20047;-76
2023/09/13 08:51:53;;;;;;;37.95;35.55;;;;;;;30.90;81.78;101165.88;4982536;28;20087;-76
2023/09/13 08:54:21;;;;;;;22.80;21.20;;;;;;;30.99;71.06;101170.16;4975954;28;20050;-77
2023/09/13 08:56:48;;;;;;;28.15;26.55;;;;;;;30.97;69.83;101175.16;4982561;28;20144;-76
2023/09/13 08:59:16;;;;;;;51.35;48.85;;;;;;;31.52;69.39;101172.50;4975326;28;20057;-76
2023/09/13 09:01:47;;;;;;;46.35;43.75;;;;;;;31.34;63.73;101169.91;4976455;28;20054;-76
2023/09/13 09:04:15;;;;;;;44.97;42.47;;;;;;;30.75;74.79;101170.75;4976456;28;20129;-76
2023/09/13 09:06:44;;;;;;;23.65;22.15;;;;;;;31.76;65.02;101158.06;4980731;28;20046;-76
2023/09/13 09:09:13;;;;;;;23.15;21.55;;;;;;;31.16;70.82;101160.97;4972592;28;20620;-76
2023/09/13 09:11:43;;;;;;;37.35;35.45;;;;;;;31.53;66.86;101163.09;4982787;28;20436;-76
2023/09/13 09:14:12;;;;;;;37.00;34.88;;;;;;;31.36;68.42;101158.59;4976716;28;20058;-76
2023/09/13 09:16:41;;;;;;;37.13;33.47;;;;;;;32.04;64.02;101163.75;4971977;28;20058;-76
2023/09/13 09:19:09;;;;;;;39.03;36.85;;;;;;;30.45;81.84;101149.97;4981009;28;20433;-76
2023/09/13 09:21:37;;;;;;;43.60;41.35;;;;;;;31.88;62.62;101160.81;4977116;28;20533;-75
2023/09/13 09:24:06;;;;;;;41.60;39.50;;;;;;;31.74;61.83;101165.81;4986412;28;20599;-76
2023/09/13 09:26:33;;;;;;;41.88;39.72;;;;;;;32.41;63.37;101164.59;4977749;28;20051;-75
2023/09/13 09:29:10;;;;;;;38.55;36.55;;;;;;;32.78;58.27;101159.09;4974831;28;20051;-74
2023/09/13 09:31:38;;;;;;;22.02;20.52;;;;;;;32.57;58.04;101160.03;4969141;28;20055;-75
2023/09/13 09:34:10;;;;;;;21.05;19.50;;;;;;;31.96;64.72;101156.44;4977979;28;20046;-74
2023/09/13 09:36:40;;;;;;;;;;;;;;;32.51;62.34;101147.66;4980885;28;20043;-83
2023/09/13 09:39:09;;;;;;;27.55;25.85;;;;;;;31.01;69.22;101151.41;4982415;28;19925;-83
2023/09/13 09:41:38;;;;;;;24.63;22.92;;;;;;;33.03;55.55;101143.38;4979093;28;20409;-84
2023/09/13 09:44:06;;;;;;;22.65;20.95;;;;;;;33.90;52.90;101137.13;4974714;28;20419;-84
2023/09/13 09:46:33;;;;;;;23.83;21.92;;;;;;;32.36;60.81;101140.88;4981516;28;20133;-83
2023/09/13 09:49:01;;;;;;;20.48;18.88;;;;;;;33.13;59.34;101137.34;4975845;28;20513;-83
2023/09/13 09:51:30;;;;;;;20.17;18.35;;;;;;;33.87;49.19;101129.56;4982607;28;20429;-84
2023/09/13 09:53:57;;;;;;;20.83;19.33;;;;;;;33.60;46.20;101130.44;4971694;28;20062;-84
2023/09/13 09:56:26;;;;;;;22.65;21.15;;;;;;;33.93;47.94;101122.66;4984436;28;20453;-84
2023/09/13 09:58:53;;;;;;;21.20;19.70;;;;;;;33.94;45.95;101131.72;4982188;28;20054;-74
2023/09/13 10:01:20;;;;;;;21.45;19.95;;;;;;;32.45;54.41;101123.50;4980956;28;20050;-74
2023/09/13 10:03:47;;;;;;;20.73;19.13;;;;;;;34.22;45.88;101119.81;4986392;28;20120;-75
2023/09/13 10:06:16;;;;;;;21.15;19.67;;;;;;;32.57;54.27;101112.50;4988513;28;20042;-75
2023/09/13 10:08:44;;;;;;;24.35;22.40;;;;;;;34.64;47.68;101111.75;4975756;28;20504;-75
2023/09/13 10:11:13;;;;;;;22.05;20.65;;;;;;;32.95;49.08;101111.25;4978282;28;20515;-84
2023/09/13 10:13:44;;;;;;;24.08;20.80;;;;;;;32.24;55.74;101110.66;4975011;28;20065;-84
2023/09/13 10:16:12;;;;;;;22.42;20.92;;;;;;;32.06;60.02;101112.81;4978646;28;20050;-74
2023/09/13 10:18:45;;;;;;;23.20;21.70;;;;;;;33.97;49.71;101117.22;4975055;28;20463;-74
2023/09/13 10:21:15;;;;;;;34.60;21.70;;;;;;;34.66;41.90;101106.69;4967666;28;20138;-82
2023/09/13 10:23:45;;;;;;;24.30;22.55;;;;;;;33.00;50.20;101106.34;4977475;28;20070;-83
2023/09/13 10:26:13;;;;;;;22.48;20.73;;;;;;;31.89;56.86;101111.09;4975038;28;20050;-83
2023/09/13 10:28:44;;;;;;;21.73;20.13;;;;;;;34.55;41.87;101103.69;4972775;28;20061;-83
2023/09/13 10:31:16;;;;;;;22.95;21.35;;;;;;;35.07;40.22;101105.22;4982057;28;20051;-83
2023/09/13 10:33:46;;;;;;;21.25;19.65;;;;;;;34.95;40.33;101099.81;4978721;28;20113;-83
2023/09/13 10:36:23;;;;;;;23.05;21.00;;;;;;;35.04;40.22;101100.44;4980299;28;20051;-82
2023/09/13 10:39:00;;;;;;;23.77;21.98;;;;;;;34.63;39.38;101102.69;4983746;28;20043;-82
2023/09/13 10:41:34;;;;;;;22.17;20.48;;;;;;;34.68;37.32;101095.28;4975322;28;20042;-83
2023/09/13 10:44:05;;;;;;;23.52;21.92;;;;;;;34.63;36.27;101099.13;4980557;28;20409;-82
2023/09/13 10:46:33;;;;;;;27.63;25.92;;;;;;;34.63;38.64;101099.94;4984636;28;20050;-83
2023/09/13 10:49:02;;;;;;;27.08;25.27;;;;;;;34.60;35.12;101095.13;4982316;28;20652;-83
2023/09/13 10:51:32;;;;;;;24.13;22.33;;;;;;;34.71;32.46;101091.81;4979753;28;20054;-83
2023/09/13 10:54:01;;;;;;;40.47;38.08;;;;;;;34.62;33.90;101087.31;4984972;28;20101;-83
2023/09/13 10:56:29;;;;;;;36.53;34.53;;;;;;;33.49;33.56;101083.31;4982223;28;20047;-83
2023/09/13 10:58:58;;;;;;;40.10;37.80;;;;;;;33.75;34.07;101080.88;4986801;28;20401;-83
2023/09/13 11:01:27;;;;;;;37.55;35.45;;;;;;;32.38;35.21;101071.84;4988535;28;20121;-82
2023/09/13 11:03:54;;;;;;;38.20;36.20;;;;;;;33.63;35.34;101072.69;4987144;28;20053;-83
2023/09/13 11:06:22;;;;;;;37.08;35.08;;;;;;;31.93;47.56;101075.50;4979292;28;20078;-81
2023/09/13 11:08:49;;;;;;;64.75;61.50;;;;;;;30.71;62.86;101078.53;4991391;28;20046;-82
2023/09/13 11:11:18;;;;;;;63.83;60.28;;;;;;;33.20;42.39;101065.25;4982354;28;20062;-83
2023/09/13 11:13:45;;;;;;;48.58;46.08;;;;;;;35.39;34.65;101066.38;4986462;28;20042;-83
2023/09/13 11:16:15;;;;;;;24.67;23.10;;;;;;;35.64;33.22;101058.56;4984554;28;20114;-83